sensor_id;sensor_type;location;lat;lon;timestamp;pressure;altitude;pressure_sealevel;temperature;humidity
64886;BME280;51514;52.206;5.114;2022-07-10T00:00:58;102862.75;;;17.25;65.00
64886;BME280;51514;52.206;5.114;2022-07-10T00:03:23;102863.78;;;17.24;64.66
64886;BME280;51514;52.206;5.114;2022-07-10T00:05:49;102870.38;;;17.21;65.22
64886;BME280;51514;52.206;5.114;2022-07-10T00:08:14;102854.50;;;17.17;64.64
64886;BME280;51514;52.206;5.114;2022-07-10T00:10:39;102865.00;;;17.11;64.93
64886;BME280;51514;52.206;5.114;2022-07-10T00:13:05;102855.41;;;17.07;65.21
64886;BME280;51514;52.206;5.114;2022-07-10T00:15:30;102859.88;;;17.08;65.11
64886;BME280;51514;52.206;5.114;2022-07-10T00:17:57;102852.69;;;17.07;65.33
64886;BME280;51514;52.206;5.114;2022-07-10T00:20:22;102856.72;;;17.03;65.56
64886;BME280;51514;52.206;5.114;2022-07-10T00:22:47;102856.88;;;17.02;65.16
64886;BME280;51514;52.206;5.114;2022-07-10T00:25:13;102854.28;;;17.00;65.46
64886;BME280;51514;52.206;5.114;2022-07-10T00:27:40;102847.97;;;17.00;65.77
64886;BME280;51514;52.206;5.114;2022-07-10T00:30:07;102855.63;;;16.96;66.00
64886;BME280;51514;52.206;5.114;2022-07-10T00:32:32;102853.34;;;16.92;66.04
64886;BME280;51514;52.206;5.114;2022-07-10T00:34:58;102863.69;;;16.88;66.18
64886;BME280;51514;52.206;5.114;2022-07-10T00:37:23;102866.41;;;16.88;66.02
64886;BME280;51514;52.206;5.114;2022-07-10T00:39:48;102865.00;;;16.84;66.30
64886;BME280;51514;52.206;5.114;2022-07-10T00:42:14;102859.56;;;16.84;66.59
64886;BME280;51514;52.206;5.114;2022-07-10T00:44:41;102860.56;;;16.83;66.81
64886;BME280;51514;52.206;5.114;2022-07-10T00:47:07;102853.25;;;16.84;66.79
64886;BME280;51514;52.206;5.114;2022-07-10T00:49:34;102854.41;;;16.81;66.82
64886;BME280;51514;52.206;5.114;2022-07-10T00:52:03;102859.41;;;16.86;66.63
64886;BME280;51514;52.206;5.114;2022-07-10T00:54:31;102853.09;;;16.85;66.56
64886;BME280;51514;52.206;5.114;2022-07-10T00:56:58;102852.38;;;16.83;66.22
64886;BME280;51514;52.206;5.114;2022-07-10T00:59:24;102847.94;;;16.82;66.31
64886;BME280;51514;52.206;5.114;2022-07-10T01:01:50;102846.09;;;16.83;66.43
64886;BME280;51514;52.206;5.114;2022-07-10T01:04:16;102844.06;;;16.85;66.39
64886;BME280;51514;52.206;5.114;2022-07-10T01:06:42;102835.91;;;16.85;66.02
64886;BME280;51514;52.206;5.114;2022-07-10T01:09:07;102841.88;;;16.88;65.96
64886;BME280;51514;52.206;5.114;2022-07-10T01:11:34;102837.28;;;16.89;66.03
64886;BME280;51514;52.206;5.114;2022-07-10T01:14:01;102836.13;;;16.91;65.77
64886;BME280;51514;52.206;5.114;2022-07-10T01:16:27;102829.53;;;16.94;65.86
64886;BME280;51514;52.206;5.114;2022-07-10T01:18:52;102831.41;;;16.93;65.60
64886;BME280;51514;52.206;5.114;2022-07-10T01:21:29;102825.22;;;16.91;65.91
64886;BME280;51514;52.206;5.114;2022-07-10T01:23:55;102816.06;;;16.92;65.82
64886;BME280;51514;52.206;5.114;2022-07-10T01:26:22;102828.25;;;16.88;65.94
64886;BME280;51514;52.206;5.114;2022-07-10T01:28:50;102818.63;;;16.94;65.82
64886;BME280;51514;52.206;5.114;2022-07-10T01:31:17;102822.94;;;16.96;65.95
64886;BME280;51514;52.206;5.114;2022-07-10T01:33:43;102828.38;;;16.96;65.92
64886;BME280;51514;52.206;5.114;2022-07-10T01:36:09;102822.38;;;16.93;66.13
64886;BME280;51514;52.206;5.114;2022-07-10T01:38:35;102808.50;;;16.86;66.28
64886;BME280;51514;52.206;5.114;2022-07-10T01:41:00;102807.50;;;16.87;66.45
64886;BME280;51514;52.206;5.114;2022-07-10T01:43:25;102810.50;;;16.84;66.74
64886;BME280;51514;52.206;5.114;2022-07-10T01:45:51;102810.09;;;16.79;66.78
64886;BME280;51514;52.206;5.114;2022-07-10T01:48:16;102813.97;;;16.76;66.98
64886;BME280;51514;52.206;5.114;2022-07-10T01:50:43;102811.44;;;16.75;67.22
64886;BME280;51514;52.206;5.114;2022-07-10T01:53:08;102815.16;;;16.74;67.32
64886;BME280;51514;52.206;5.114;2022-07-10T01:55:34;102815.44;;;16.71;67.64
64886;BME280;51514;52.206;5.114;2022-07-10T01:57:59;102813.03;;;16.68;67.68
64886;BME280;51514;52.206;5.114;2022-07-10T02:00:25;102813.34;;;16.65;68.16
64886;BME280;51514;52.206;5.114;2022-07-10T02:02:50;102805.84;;;16.67;68.04
64886;BME280;51514;52.206;5.114;2022-07-10T02:05:34;102801.41;;;16.66;68.28
64886;BME280;51514;52.206;5.114;2022-07-10T02:08:00;102804.13;;;16.66;68.56
64886;BME280;51514;52.206;5.114;2022-07-10T02:10:28;102801.59;;;16.64;68.48
64886;BME280;51514;52.206;5.114;2022-07-10T02:12:54;102797.00;;;16.65;68.66
64886;BME280;51514;52.206;5.114;2022-07-10T02:15:19;102796.53;;;16.60;68.92
64886;BME280;51514;52.206;5.114;2022-07-10T02:17:44;102794.97;;;16.57;69.14
64886;BME280;51514;52.206;5.114;2022-07-10T02:20:10;102798.16;;;16.53;68.98
64886;BME280;51514;52.206;5.114;2022-07-10T02:22:36;102789.13;;;16.52;69.02
64886;BME280;51514;52.206;5.114;2022-07-10T02:25:01;102784.69;;;16.51;69.56
64886;BME280;51514;52.206;5.114;2022-07-10T02:27:26;102790.28;;;16.50;69.13
64886;BME280;51514;52.206;5.114;2022-07-10T02:29:52;102791.28;;;16.49;69.12
64886;BME280;51514;52.206;5.114;2022-07-10T02:32:18;102794.16;;;16.47;69.47
64886;BME280;51514;52.206;5.114;2022-07-10T02:34:43;102797.88;;;16.46;69.34
64886;BME280;51514;52.206;5.114;2022-07-10T02:37:09;102790.91;;;16.43;69.60
64886;BME280;51514;52.206;5.114;2022-07-10T02:39:34;102787.00;;;16.46;69.04
64886;BME280;51514;52.206;5.114;2022-07-10T02:42:00;102789.88;;;16.44;69.94
64886;BME280;51514;52.206;5.114;2022-07-10T02:44:25;102792.28;;;16.48;69.63
64886;BME280;51514;52.206;5.114;2022-07-10T02:46:50;102786.00;;;16.47;69.89
64886;BME280;51514;52.206;5.114;2022-07-10T02:49:16;102798.47;;;16.50;69.92
64886;BME280;51514;52.206;5.114;2022-07-10T02:51:41;102785.56;;;16.52;70.04
64886;BME280;51514;52.206;5.114;2022-07-10T02:54:06;102794.13;;;16.57;69.89
64886;BME280;51514;52.206;5.114;2022-07-10T02:56:33;102784.06;;;16.57;70.13
64886;BME280;51514;52.206;5.114;2022-07-10T02:58:58;102793.81;;;16.60;70.06
64886;BME280;51514;52.206;5.114;2022-07-10T03:01:24;102791.84;;;16.62;70.08
64886;BME280;51514;52.206;5.114;2022-07-10T03:03:49;102797.28;;;16.62;69.79
64886;BME280;51514;52.206;5.114;2022-07-10T03:06:14;102791.56;;;16.65;70.29
64886;BME280;51514;52.206;5.114;2022-07-10T03:08:40;102792.41;;;16.65;70.35
64886;BME280;51514;52.206;5.114;2022-07-10T03:11:06;102788.50;;;16.68;70.33
64886;BME280;51514;52.206;5.114;2022-07-10T03:13:32;102780.19;;;16.69;70.31
64886;BME280;51514;52.206;5.114;2022-07-10T03:15:57;102794.38;;;16.73;69.73
64886;BME280;51514;52.206;5.114;2022-07-10T03:18:22;102795.94;;;16.75;70.07
64886;BME280;51514;52.206;5.114;2022-07-10T03:20:48;102785.03;;;16.75;70.36
64886;BME280;51514;52.206;5.114;2022-07-10T03:23:13;102779.13;;;16.80;69.92
64886;BME280;51514;52.206;5.114;2022-07-10T03:25:39;102785.13;;;16.84;70.14
64886;BME280;51514;52.206;5.114;2022-07-10T03:28:04;102782.25;;;16.85;69.99
64886;BME280;51514;52.206;5.114;2022-07-10T03:30:30;102777.53;;;16.87;70.10
64886;BME280;51514;52.206;5.114;2022-07-10T03:32:55;102780.78;;;16.91;70.08
64886;BME280;51514;52.206;5.114;2022-07-10T03:35:20;102775.88;;;16.94;69.65
64886;BME280;51514;52.206;5.114;2022-07-10T03:37:46;102773.88;;;16.96;69.52
64886;BME280;51514;52.206;5.114;2022-07-10T03:40:11;102789.88;;;16.99;69.38
64886;BME280;51514;52.206;5.114;2022-07-10T03:42:36;102787.88;;;17.01;69.79
64886;BME280;51514;52.206;5.114;2022-07-10T03:45:02;102786.00;;;17.02;69.38
64886;BME280;51514;52.206;5.114;2022-07-10T03:47:27;102775.25;;;17.00;69.46
64886;BME280;51514;52.206;5.114;2022-07-10T03:49:53;102776.97;;;17.01;69.51
64886;BME280;51514;52.206;5.114;2022-07-10T03:52:18;102766.78;;;17.03;69.52
64886;BME280;51514;52.206;5.114;2022-07-10T03:54:43;102764.47;;;17.08;69.29
64886;BME280;51514;52.206;5.114;2022-07-10T03:57:09;102756.28;;;17.08;69.50
64886;BME280;51514;52.206;5.114;2022-07-10T03:59:53;102752.38;;;17.11;69.33
64886;BME280;51514;52.206;5.114;2022-07-10T04:02:18;102753.09;;;17.13;69.19
64886;BME280;51514;52.206;5.114;2022-07-10T04:04:43;102761.09;;;17.14;68.84
64886;BME280;51514;52.206;5.114;2022-07-10T04:07:09;102764.53;;;17.17;69.38
64886;BME280;51514;52.206;5.114;2022-07-10T04:09:36;102761.31;;;17.21;69.23
64886;BME280;51514;52.206;5.114;2022-07-10T04:12:01;102762.19;;;17.22;69.28
64886;BME280;51514;52.206;5.114;2022-07-10T04:14:26;102760.66;;;17.19;69.12
64886;BME280;51514;52.206;5.114;2022-07-10T04:16:52;102763.03;;;17.22;68.74
64886;BME280;51514;52.206;5.114;2022-07-10T04:19:17;102759.16;;;17.25;68.67
64886;BME280;51514;52.206;5.114;2022-07-10T04:21:43;102766.03;;;17.29;68.72
64886;BME280;51514;52.206;5.114;2022-07-10T04:24:08;102770.47;;;17.30;68.48
64886;BME280;51514;52.206;5.114;2022-07-10T04:26:34;102757.50;;;17.32;68.82
64886;BME280;51514;52.206;5.114;2022-07-10T04:28:59;102763.66;;;17.34;68.71
64886;BME280;51514;52.206;5.114;2022-07-10T04:31:24;102764.38;;;17.36;69.04
64886;BME280;51514;52.206;5.114;2022-07-10T04:33:50;102764.94;;;17.39;69.44
64886;BME280;51514;52.206;5.114;2022-07-10T04:36:15;102756.41;;;17.42;69.37
64886;BME280;51514;52.206;5.114;2022-07-10T04:38:41;102759.69;;;17.46;69.21
64886;BME280;51514;52.206;5.114;2022-07-10T04:41:06;102762.13;;;17.49;69.00
64886;BME280;51514;52.206;5.114;2022-07-10T04:43:32;102761.97;;;17.50;69.27
64886;BME280;51514;52.206;5.114;2022-07-10T04:45:57;102760.47;;;17.56;69.26
64886;BME280;51514;52.206;5.114;2022-07-10T04:48:23;102754.69;;;17.59;69.24
64886;BME280;51514;52.206;5.114;2022-07-10T04:50:48;102758.84;;;17.63;69.53
64886;BME280;51514;52.206;5.114;2022-07-10T04:53:14;102756.19;;;17.71;69.31
64886;BME280;51514;52.206;5.114;2022-07-10T04:55:39;102762.00;;;17.76;68.79
64886;BME280;51514;52.206;5.114;2022-07-10T04:58:04;102759.63;;;17.73;68.25
64886;BME280;51514;52.206;5.114;2022-07-10T05:00:30;102770.69;;;17.72;68.47
64886;BME280;51514;52.206;5.114;2022-07-10T05:02:55;102774.09;;;17.74;68.25
64886;BME280;51514;52.206;5.114;2022-07-10T05:05:20;102765.56;;;17.69;68.35
64886;BME280;51514;52.206;5.114;2022-07-10T05:07:46;102769.75;;;17.63;67.99
64886;BME280;51514;52.206;5.114;2022-07-10T05:10:11;102767.56;;;17.67;67.95
64886;BME280;51514;52.206;5.114;2022-07-10T05:12:36;102767.81;;;17.73;68.49
64886;BME280;51514;52.206;5.114;2022-07-10T05:15:02;102764.03;;;17.74;68.05
64886;BME280;51514;52.206;5.114;2022-07-10T05:17:28;102774.50;;;17.79;68.24
64886;BME280;51514;52.206;5.114;2022-07-10T05:19:54;102768.88;;;17.80;67.94
64886;BME280;51514;52.206;5.114;2022-07-10T05:22:21;102770.44;;;17.83;68.26
64886;BME280;51514;52.206;5.114;2022-07-10T05:24:46;102774.03;;;17.83;68.18
64886;BME280;51514;52.206;5.114;2022-07-10T05:27:11;102764.28;;;17.81;68.05
64886;BME280;51514;52.206;5.114;2022-07-10T05:29:37;102769.88;;;17.79;68.47
64886;BME280;51514;52.206;5.114;2022-07-10T05:32:02;102766.50;;;17.85;68.79
64886;BME280;51514;52.206;5.114;2022-07-10T05:34:28;102765.66;;;17.85;68.52
64886;BME280;51514;52.206;5.114;2022-07-10T05:36:53;102769.94;;;17.87;68.37
64886;BME280;51514;52.206;5.114;2022-07-10T05:39:18;102768.72;;;17.82;68.35
64886;BME280;51514;52.206;5.114;2022-07-10T05:41:43;102768.56;;;17.83;68.18
64886;BME280;51514;52.206;5.114;2022-07-10T05:44:09;102760.53;;;17.82;67.90
64886;BME280;51514;52.206;5.114;2022-07-10T05:46:34;102759.38;;;17.84;68.12
64886;BME280;51514;52.206;5.114;2022-07-10T05:48:59;102768.72;;;17.82;68.01
64886;BME280;51514;52.206;5.114;2022-07-10T05:51:25;102760.31;;;17.75;68.29
64886;BME280;51514;52.206;5.114;2022-07-10T05:53:50;102764.03;;;17.74;67.94
64886;BME280;51514;52.206;5.114;2022-07-10T05:56:15;102760.44;;;17.74;68.36
64886;BME280;51514;52.206;5.114;2022-07-10T05:58:41;102764.03;;;17.74;68.19
64886;BME280;51514;52.206;5.114;2022-07-10T06:01:06;102765.75;;;17.75;68.44
64886;BME280;51514;52.206;5.114;2022-07-10T06:03:31;102767.47;;;17.76;68.56
64886;BME280;51514;52.206;5.114;2022-07-10T06:05:58;102771.59;;;17.80;68.69
64886;BME280;51514;52.206;5.114;2022-07-10T06:08:24;102768.72;;;17.82;68.80
64886;BME280;51514;52.206;5.114;2022-07-10T06:10:50;102766.69;;;17.84;68.29
64886;BME280;51514;52.206;5.114;2022-07-10T06:13:15;102764.47;;;17.87;68.07
64886;BME280;51514;52.206;5.114;2022-07-10T06:15:40;102771.34;;;17.92;68.37
64886;BME280;51514;52.206;5.114;2022-07-10T06:18:06;102769.63;;;17.91;68.39
64886;BME280;51514;52.206;5.114;2022-07-10T06:20:31;102772.06;;;17.94;68.23
64886;BME280;51514;52.206;5.114;2022-07-10T06:22:57;102770.69;;;17.98;68.41
64886;BME280;51514;52.206;5.114;2022-07-10T06:25:23;102766.94;;;17.99;68.05
64886;BME280;51514;52.206;5.114;2022-07-10T06:27:48;102777.72;;;18.00;68.23
64886;BME280;51514;52.206;5.114;2022-07-10T06:30:14;102782.16;;;18.01;68.26
64886;BME280;51514;52.206;5.114;2022-07-10T06:32:40;102778.63;;;18.09;68.47
64886;BME280;51514;52.206;5.114;2022-07-10T06:35:05;102776.28;;;18.14;68.46
64886;BME280;51514;52.206;5.114;2022-07-10T06:37:32;102769.28;;;18.19;68.53
64886;BME280;51514;52.206;5.114;2022-07-10T06:39:58;102775.31;;;18.23;68.45
64886;BME280;51514;52.206;5.114;2022-07-10T06:42:23;102777.56;;;18.28;68.73
64886;BME280;51514;52.206;5.114;2022-07-10T06:44:49;102778.03;;;18.23;68.12
64886;BME280;51514;52.206;5.114;2022-07-10T06:47:17;102773.63;;;18.30;68.28
64886;BME280;51514;52.206;5.114;2022-07-10T06:50:03;102776.03;;;18.33;68.14
64886;BME280;51514;52.206;5.114;2022-07-10T06:52:31;102768.53;;;18.35;68.09
64886;BME280;51514;52.206;5.114;2022-07-10T06:54:57;102775.38;;;18.39;67.47
64886;BME280;51514;52.206;5.114;2022-07-10T06:57:23;102777.09;;;18.40;67.31
64886;BME280;51514;52.206;5.114;2022-07-10T06:59:48;102768.88;;;18.40;66.81
64886;BME280;51514;52.206;5.114;2022-07-10T07:02:13;102777.94;;;18.41;67.20
64886;BME280;51514;52.206;5.114;2022-07-10T07:04:39;102781.06;;;18.46;67.26
64886;BME280;51514;52.206;5.114;2022-07-10T07:07:04;102789.09;;;18.47;67.24
64886;BME280;51514;52.206;5.114;2022-07-10T07:09:29;102783.97;;;18.52;67.05
64886;BME280;51514;52.206;5.114;2022-07-10T07:11:55;102770.38;;;18.60;67.52
64886;BME280;51514;52.206;5.114;2022-07-10T07:14:20;102768.72;;;18.68;67.64
64886;BME280;51514;52.206;5.114;2022-07-10T07:16:45;102771.78;;;18.73;67.60
64886;BME280;51514;52.206;5.114;2022-07-10T07:19:22;102783.81;;;18.80;67.66
64886;BME280;51514;52.206;5.114;2022-07-10T07:21:56;102776.78;;;18.85;67.74
64886;BME280;51514;52.206;5.114;2022-07-10T07:24:40;102776.66;;;18.95;67.62
64886;BME280;51514;52.206;5.114;2022-07-10T07:27:05;102774.78;;;19.04;66.99
64886;BME280;51514;52.206;5.114;2022-07-10T07:29:30;102774.63;;;19.05;66.98
64886;BME280;51514;52.206;5.114;2022-07-10T07:31:56;102776.34;;;19.06;66.97
64886;BME280;51514;52.206;5.114;2022-07-10T07:34:21;102777.72;;;19.10;66.74
64886;BME280;51514;52.206;5.114;2022-07-10T07:36:46;102774.47;;;19.15;66.29
64886;BME280;51514;52.206;5.114;2022-07-10T07:39:12;102776.56;;;19.21;66.48
64886;BME280;51514;52.206;5.114;2022-07-10T07:41:37;102781.69;;;19.24;66.21
64886;BME280;51514;52.206;5.114;2022-07-10T07:44:02;102772.09;;;19.28;66.45
64886;BME280;51514;52.206;5.114;2022-07-10T07:46:28;102781.69;;;19.32;66.12
64886;BME280;51514;52.206;5.114;2022-07-10T07:48:53;102785.13;;;19.34;66.30
64886;BME280;51514;52.206;5.114;2022-07-10T07:51:18;102779.50;;;19.36;65.99
64886;BME280;51514;52.206;5.114;2022-07-10T07:53:44;102782.38;;;19.42;66.15
64886;BME280;51514;52.206;5.114;2022-07-10T07:56:09;102788.56;;;19.44;65.57
64886;BME280;51514;52.206;5.114;2022-07-10T07:58:34;102787.69;;;19.44;65.14
64886;BME280;51514;52.206;5.114;2022-07-10T08:01:00;102790.44;;;19.44;65.50
64886;BME280;51514;52.206;5.114;2022-07-10T08:03:25;102792.66;;;19.48;65.23
64886;BME280;51514;52.206;5.114;2022-07-10T08:05:51;102787.88;;;19.42;65.21
64886;BME280;51514;52.206;5.114;2022-07-10T08:08:16;102792.66;;;19.48;64.76
64886;BME280;51514;52.206;5.114;2022-07-10T08:10:42;102780.91;;;19.56;64.77
64886;BME280;51514;52.206;5.114;2022-07-10T08:13:07;102795.75;;;19.61;64.79
64886;BME280;51514;52.206;5.114;2022-07-10T08:15:33;102789.97;;;19.64;64.38
64886;BME280;51514;52.206;5.114;2022-07-10T08:18:00;102781.91;;;19.71;64.62
64886;BME280;51514;52.206;5.114;2022-07-10T08:20:27;102779.50;;;19.84;64.56
64886;BME280;51514;52.206;5.114;2022-07-10T08:22:53;102778.81;;;19.90;64.05
64886;BME280;51514;52.206;5.114;2022-07-10T08:25:19;102779.50;;;20.00;64.19
64886;BME280;51514;52.206;5.114;2022-07-10T08:27:45;102771.59;;;20.05;63.25
64886;BME280;51514;52.206;5.114;2022-07-10T08:30:11;102769.22;;;20.11;62.94
64886;BME280;51514;52.206;5.114;2022-07-10T08:32:40;102770.72;;;20.21;62.90
64886;BME280;51514;52.206;5.114;2022-07-10T08:35:07;102760.41;;;20.31;62.20
64886;BME280;51514;52.206;5.114;2022-07-10T08:37:43;102764.66;;;20.34;61.02
64886;BME280;51514;52.206;5.114;2022-07-10T08:40:12;102765.00;;;20.47;61.82
64886;BME280;51514;52.206;5.114;2022-07-10T08:42:38;102765.66;;;20.57;62.21
64886;BME280;51514;52.206;5.114;2022-07-10T08:45:04;102766.16;;;20.61;62.00
64886;BME280;51514;52.206;5.114;2022-07-10T08:47:29;102771.75;;;20.67;61.55
64886;BME280;51514;52.206;5.114;2022-07-10T08:49:57;102774.16;;;20.70;61.96
64886;BME280;51514;52.206;5.114;2022-07-10T08:52:33;102769.88;;;20.76;61.81
64886;BME280;51514;52.206;5.114;2022-07-10T08:55:01;102770.34;;;20.80;61.18
64886;BME280;51514;52.206;5.114;2022-07-10T08:57:28;102776.09;;;20.93;61.56
64886;BME280;51514;52.206;5.114;2022-07-10T08:59:54;102772.28;;;21.02;61.44
64886;BME280;51514;52.206;5.114;2022-07-10T09:02:20;102768.09;;;21.14;60.04
64886;BME280;51514;52.206;5.114;2022-07-10T09:04:45;102757.06;;;21.22;60.35
64886;BME280;51514;52.206;5.114;2022-07-10T09:07:11;102766.00;;;21.24;59.56
64886;BME280;51514;52.206;5.114;2022-07-10T09:09:56;102763.06;;;21.26;60.10
64886;BME280;51514;52.206;5.114;2022-07-10T09:12:22;102756.28;;;21.36;58.93
64886;BME280;51514;52.206;5.114;2022-07-10T09:14:48;102758.44;;;21.49;59.63
64886;BME280;51514;52.206;5.114;2022-07-10T09:17:14;102753.19;;;21.62;59.09
64886;BME280;51514;52.206;5.114;2022-07-10T09:19:39;102755.16;;;21.68;58.17
64886;BME280;51514;52.206;5.114;2022-07-10T09:22:07;102750.88;;;21.66;58.05
64886;BME280;51514;52.206;5.114;2022-07-10T09:24:40;102748.09;;;21.74;59.24
64886;BME280;51514;52.206;5.114;2022-07-10T09:27:06;102742.59;;;21.74;58.22
64886;BME280;51514;52.206;5.114;2022-07-10T09:29:33;102744.22;;;21.83;59.03
64886;BME280;51514;52.206;5.114;2022-07-10T09:32:09;102738.34;;;21.86;59.14
64886;BME280;51514;52.206;5.114;2022-07-10T09:34:50;102740.03;;;21.87;57.35
64886;BME280;51514;52.206;5.114;2022-07-10T09:37:39;102735.91;;;21.91;57.76
64886;BME280;51514;52.206;5.114;2022-07-10T09:40:06;102729.63;;;21.97;58.68
64886;BME280;51514;52.206;5.114;2022-07-10T09:47:45;102744.19;;;22.20;57.85
64886;BME280;51514;52.206;5.114;2022-07-10T09:50:34;102735.47;;;22.17;58.23
64886;BME280;51514;52.206;5.114;2022-07-10T09:53:00;102728.25;;;22.31;58.01
64886;BME280;51514;52.206;5.114;2022-07-10T09:55:28;102733.09;;;22.43;58.10
64886;BME280;51514;52.206;5.114;2022-07-10T09:58:01;102731.06;;;22.52;56.46
64886;BME280;51514;52.206;5.114;2022-07-10T10:00:29;102720.06;;;22.52;55.44
64886;BME280;51514;52.206;5.114;2022-07-10T10:02:57;102729.00;;;22.54;56.63
64886;BME280;51514;52.206;5.114;2022-07-10T10:05:36;102725.50;;;22.60;56.65
64886;BME280;51514;52.206;5.114;2022-07-10T10:08:16;102730.59;;;22.63;56.19
64886;BME280;51514;52.206;5.114;2022-07-10T10:10:45;102731.25;;;22.65;57.20
64886;BME280;51514;52.206;5.114;2022-07-10T10:13:16;102732.31;;;22.79;55.06
64886;BME280;51514;52.206;5.114;2022-07-10T10:15:42;102719.41;;;22.79;55.88
64886;BME280;51514;52.206;5.114;2022-07-10T10:18:08;102723.44;;;22.83;55.97
64886;BME280;51514;52.206;5.114;2022-07-10T10:20:35;102713.66;;;22.96;55.53
64886;BME280;51514;52.206;5.114;2022-07-10T10:23:13;102722.06;;;23.09;54.88
64886;BME280;51514;52.206;5.114;2022-07-10T10:25:39;102722.09;;;23.15;54.48
64886;BME280;51514;52.206;5.114;2022-07-10T10:28:07;102716.03;;;23.20;53.74
64886;BME280;51514;52.206;5.114;2022-07-10T10:30:36;102726.66;;;23.23;53.58
64886;BME280;51514;52.206;5.114;2022-07-10T10:33:03;102729.66;;;23.28;52.91
64886;BME280;51514;52.206;5.114;2022-07-10T10:35:45;102728.94;;;23.41;52.71
64886;BME280;51514;52.206;5.114;2022-07-10T10:38:13;102730.38;;;23.58;52.33
64886;BME280;51514;52.206;5.114;2022-07-10T10:40:39;102729.28;;;23.52;51.47
64886;BME280;51514;52.206;5.114;2022-07-10T10:43:24;102725.47;;;23.53;51.94
64886;BME280;51514;52.206;5.114;2022-07-10T10:45:51;102728.72;;;23.63;51.98
64886;BME280;51514;52.206;5.114;2022-07-10T10:48:19;102723.69;;;23.67;51.47
64886;BME280;51514;52.206;5.114;2022-07-10T10:50:52;102730.69;;;23.70;51.33
64886;BME280;51514;52.206;5.114;2022-07-10T10:53:28;102727.13;;;23.76;51.12
64886;BME280;51514;52.206;5.114;2022-07-10T11:06:44;102721.88;;;23.81;50.43
64886;BME280;51514;52.206;5.114;2022-07-10T11:09:30;102714.22;;;23.76;50.95
64886;BME280;51514;52.206;5.114;2022-07-10T11:12:05;102704.84;;;23.71;49.46
64886;BME280;51514;52.206;5.114;2022-07-10T11:14:36;102715.75;;;23.85;48.97
64886;BME280;51514;52.206;5.114;2022-07-10T11:17:04;102711.13;;;23.92;50.50
64886;BME280;51514;52.206;5.114;2022-07-10T11:19:30;102719.88;;;23.96;50.40
64886;BME280;51514;52.206;5.114;2022-07-10T11:30:17;102711.03;;;24.07;48.28
64886;BME280;51514;52.206;5.114;2022-07-10T11:32:42;102707.63;;;24.05;47.50
64886;BME280;51514;52.206;5.114;2022-07-10T11:35:13;102720.31;;;23.99;48.44
64886;BME280;51514;52.206;5.114;2022-07-10T11:37:52;102712.75;;;24.08;49.14
64886;BME280;51514;52.206;5.114;2022-07-10T11:40:18;102713.19;;;24.12;47.36
64886;BME280;51514;52.206;5.114;2022-07-10T11:42:55;102704.69;;;24.13;47.64
64886;BME280;51514;52.206;5.114;2022-07-10T11:45:27;102701.31;;;24.11;47.55
64886;BME280;51514;52.206;5.114;2022-07-10T11:47:54;102707.22;;;24.08;47.32
64886;BME280;51514;52.206;5.114;2022-07-10T11:50:19;102697.16;;;24.22;47.65
64886;BME280;51514;52.206;5.114;2022-07-10T11:52:45;102695.09;;;24.30;47.60
64886;BME280;51514;52.206;5.114;2022-07-10T11:55:22;102693.00;;;24.46;47.77
64886;BME280;51514;52.206;5.114;2022-07-10T11:57:48;102689.84;;;24.42;47.17
64886;BME280;51514;52.206;5.114;2022-07-10T12:00:25;102691.50;;;24.36;47.54
64886;BME280;51514;52.206;5.114;2022-07-10T12:02:52;102677.97;;;24.48;48.21
64886;BME280;51514;52.206;5.114;2022-07-10T12:05:35;102686.25;;;24.48;46.93
64886;BME280;51514;52.206;5.114;2022-07-10T12:08:01;102681.38;;;24.57;47.06
64886;BME280;51514;52.206;5.114;2022-07-10T12:10:28;102681.38;;;24.57;47.66
64886;BME280;51514;52.206;5.114;2022-07-10T12:12:53;102673.81;;;24.65;47.63
64886;BME280;51514;52.206;5.114;2022-07-10T12:15:35;102680.38;;;24.71;46.31
64886;BME280;51514;52.206;5.114;2022-07-10T12:18:04;102688.44;;;24.72;47.83
64886;BME280;51514;52.206;5.114;2022-07-10T12:20:29;102684.44;;;24.82;46.90
64886;BME280;51514;52.206;5.114;2022-07-10T12:22:55;102683.00;;;24.92;46.76
64886;BME280;51514;52.206;5.114;2022-07-10T12:25:21;102676.66;;;24.98;46.06
64886;BME280;51514;52.206;5.114;2022-07-10T12:27:47;102679.44;;;24.98;46.61
64886;BME280;51514;52.206;5.114;2022-07-10T12:30:12;102686.22;;;25.02;46.95
64886;BME280;51514;52.206;5.114;2022-07-10T12:32:37;102680.06;;;25.07;47.03
64886;BME280;51514;52.206;5.114;2022-07-10T12:35:03;102681.97;;;25.06;46.44
64886;BME280;51514;52.206;5.114;2022-07-10T12:37:28;102680.47;;;25.10;46.66
64886;BME280;51514;52.206;5.114;2022-07-10T12:39:54;102680.06;;;25.14;45.71
64886;BME280;51514;52.206;5.114;2022-07-10T12:42:26;102677.94;;;25.16;47.06
64886;BME280;51514;52.206;5.114;2022-07-10T12:44:52;102673.06;;;25.11;46.29
64886;BME280;51514;52.206;5.114;2022-07-10T12:47:19;102672.84;;;25.13;45.76
64886;BME280;51514;52.206;5.114;2022-07-10T12:49:55;102681.97;;;25.13;45.74
64886;BME280;51514;52.206;5.114;2022-07-10T12:52:34;102674.97;;;25.04;45.54
64886;BME280;51514;52.206;5.114;2022-07-10T12:55:08;102680.28;;;25.05;47.94
64886;BME280;51514;52.206;5.114;2022-07-10T12:58:05;102676.66;;;25.05;46.96
64886;BME280;51514;52.206;5.114;2022-07-10T13:00:33;102672.84;;;25.13;47.08
64886;BME280;51514;52.206;5.114;2022-07-10T13:03:07;102676.25;;;25.15;46.89
64886;BME280;51514;52.206;5.114;2022-07-10T13:08:18;102672.84;;;25.13;47.85
64886;BME280;51514;52.206;5.114;2022-07-10T13:10:55;102665.19;;;25.21;46.90
64886;BME280;51514;52.206;5.114;2022-07-10T13:13:21;102658.41;;;25.10;47.33
64886;BME280;51514;52.206;5.114;2022-07-10T13:15:47;102667.75;;;25.03;47.59
64886;BME280;51514;52.206;5.114;2022-07-10T13:18:17;102666.47;;;25.05;47.92